M I D A S
Marine Information and Data Acquisition System
Tripno 747 of the Zeeleeuw from 2004-07-13 06:12:42 to 2004-07-13 17:27:28
Back to CruiseResearch ActivitiesStationsMapUnderway DataData graphs

EquipmentUnitsComment
TimeDGPSUTC
LatitudeDGPSDM.mWGS84
LongitudeDGPSDM.mWGS84
HeadingGyrodeg 
SOGDGPSknotsSpeed over ground
COGDGPSdegCourse over ground
DepthEcho soundermeters200 kHz
Missing or incorrect values are displayed as -999
Navigation data collected by the RV Zeeleeuw from 2004-07-13 06:12:42 to 2004-07-13 17:27:28
                                                                                    Next 1000 lines
Time Latitude Longitude Heading SOG COG Depth
2004-07-13 06:12:53 51°13.597 2°56.096 127.2   71 8.4
2004-07-13 06:12:57 51°13.597 2°56.096 127   83 8.2
2004-07-13 06:13:02 51°13.597 2°56.096 126.8   77 8.1
2004-07-13 06:13:08 51°13.597 2°56.096 126.4   57 8.2
2004-07-13 06:13:13 51°13.597 2°56.096 126.2   124 8.1
2004-07-13 06:13:17 51°13.597 2°56.096 126   194 -999
2004-07-13 06:13:22 51°13.597 2°56.096 125.9   243 8.1
2004-07-13 06:13:28 51°13.597 2°56.096 126   236 8.1
2004-07-13 06:13:32 51°13.597 2°56.096 126.2   312 8.1
2004-07-13 06:13:37 51°13.597 2°56.096 126.7   257 8.1
2004-07-13 06:13:42 51°13.597 2°56.096 127   264 8.2
2004-07-13 06:13:48 51°13.597 2°56.096 127.4   230 8.1
2004-07-13 06:13:53 51°13.597 2°56.096 127.5   265 8.1
2004-07-13 06:13:57 51°13.597 2°56.096 127.5   12 8.1
2004-07-13 06:14:01 51°13.597 2°56.096 127.5   45 8.3
2004-07-13 06:14:07 51°13.597 2°56.096 127.6   86 8.1
2004-07-13 06:14:13 51°13.597 2°56.096 127.6   153 8.1
2004-07-13 06:14:17 51°13.597 2°56.096 127.5   91 8.2
2004-07-13 06:14:22 51°13.597 2°56.096 127.2   30 8.2
2004-07-13 06:14:28 51°13.597 2°56.096 127   9 8.2
2004-07-13 06:14:32 51°13.597 2°56.096 127   240 8.3
2004-07-13 06:14:37 51°13.597 2°56.096 126.9   304 8.2
2004-07-13 06:14:42 51°13.597 2°56.096 126.9   263 8.2
2004-07-13 06:14:48 51°13.597 2°56.096 127   325 8.3
2004-07-13 06:14:53 51°13.597 2°56.096 127.1   268 8.2
2004-07-13 06:14:57 51°13.597 2°56.096 127.3   193 8.4
2004-07-13 06:15:02 51°13.597 2°56.096 127.4   152 8.3
2004-07-13 06:15:08 51°13.597 2°56.096 127.4   107 8.4
2004-07-13 06:15:12 51°13.597 2°56.096 127.4   98 8.2
2004-07-13 06:15:17 51°13.597 2°56.096 127.2   51 8.1
2004-07-13 06:15:22 51°13.597 2°56.096 127   249 8.3
2004-07-13 06:15:28 51°13.597 2°56.096 127   9 8.2
2004-07-13 06:15:32 51°13.597 2°56.096 127   295 8.2
2004-07-13 06:15:37 51°13.597 2°56.096 127   223 8.3
2004-07-13 06:15:42 51°13.597 2°56.096 127   12 8.6
2004-07-13 06:15:47 51°13.597 2°56.096 127   249 8.4
2004-07-13 06:15:52 51°13.597 2°56.096 127.1   264 8.1
2004-07-13 06:15:57 51°13.597 2°56.096 127.1   353 8.1
2004-07-13 06:16:02 51°13.597 2°56.096 127.1   25 8.2
2004-07-13 06:16:07 51°13.597 2°56.096 127.1   193 8.2
2004-07-13 06:16:12 51°13.597 2°56.096 127.1   222 8.1
2004-07-13 06:16:16 51°13.597 2°56.096 127.1   93 8.3
2004-07-13 06:16:22 51°13.597 2°56.096 127.1   220 8.2
2004-07-13 06:16:28 51°13.597 2°56.096 127.1   39 8.1
2004-07-13 06:16:32 51°13.597 2°56.096 127.1   64 8.2
2004-07-13 06:16:37 51°13.597 2°56.096 127.1   232 8.2
2004-07-13 06:16:42 51°13.597 2°56.096 127.1   40 8.2
2004-07-13 06:16:48 51°13.597 2°56.096 127.1   229 8.3
2004-07-13 06:16:52 51°13.597 2°56.096 127   259 8.2
2004-07-13 06:16:57 51°13.597 2°56.096 127   257 8.2
2004-07-13 06:17:02 51°13.597 2°56.096 127   279 8.4
2004-07-13 06:17:06 51°13.597 2°56.096 127   242 8.1
2004-07-13 06:17:12 51°13.597 2°56.096 127.1   247 8.3
2004-07-13 06:17:18 51°13.597 2°56.096 127.3   247 8.3
2004-07-13 06:17:22 51°13.597 2°56.096 127.4   89 8.3
2004-07-13 06:17:26 51°13.597 2°56.096 127.5   90 8.1
2004-07-13 06:17:32 51°13.597 2°56.096 127.5 0.1 72 8.1
2004-07-13 06:17:36 51°13.597 2°56.097 127.1 0.1 101 8.3
2004-07-13 06:17:42 51°13.597 2°56.097 126.2 0.1 96 8.2
2004-07-13 06:17:48 51°13.597 2°56.097 124.6 0.1 174 8.2
2004-07-13 06:17:53 51°13.597 2°56.097 123.1 0.1 203 8.2
2004-07-13 06:17:58 51°13.597 2°56.096 122 0.1 202 8.3
2004-07-13 06:18:02 51°13.597 2°56.096 121 0.1 192 8.2
2004-07-13 06:18:08 51°13.597 2°56.096 119.4 0.1 176 8.4
2004-07-13 06:18:12 51°13.597 2°56.096 118 0.1 200 8.4
2004-07-13 06:18:17 51°13.596 2°56.096 116.9 0.1 198 8.4
2004-07-13 06:18:22 51°13.596 2°56.096 116.1 0.3 279 8.2
2004-07-13 06:18:28 51°13.597 2°56.094 115.4 0.6 290 8.1
2004-07-13 06:18:33 51°13.597 2°56.092 115.2 1.1 289 8.1
2004-07-13 06:18:37 51°13.598 2°56.09 115.3 1.4 293 8.2
2004-07-13 06:18:42 51°13.599 2°56.086 116.1 1.7 293 7.9
2004-07-13 06:18:46 51°13.599 2°56.083 116.8 2 295 5.4
2004-07-13 06:18:52 51°13.601 2°56.077 117.9 2.5 296 -999
2004-07-13 06:18:58 51°13.603 2°56.07 118.9 2.8 297 -999
2004-07-13 06:19:03 51°13.605 2°56.064 119.2 3 297 -999
2004-07-13 06:19:08 51°13.607 2°56.058 119.3 3.3 297 -999
2004-07-13 06:19:13 51°13.609 2°56.051 119.3 3.5 296 -999
2004-07-13 06:19:18 51°13.611 2°56.044 119.3 3.6 296 -999
2004-07-13 06:19:23 51°13.614 2°56.036 119.2 3.8 296 -999
2004-07-13 06:19:28 51°13.616 2°56.028 119.2 3.9 296 -999
2004-07-13 06:19:33 51°13.619 2°56.02 119.2 4.1 296 -999
2004-07-13 06:19:38 51°13.621 2°56.012 119.4 4.2 296 -999
2004-07-13 06:19:42 51°13.623 2°56.005 119.5 4.3 296 -999
2004-07-13 06:19:48 51°13.626 2°55.995 119.3 4.3 295 -999
2004-07-13 06:19:53 51°13.629 2°55.986 118.9 4.4 296 -999
2004-07-13 06:19:58 51°13.632 2°55.977 118.3 4.4 295 -999
2004-07-13 06:20:02 51°13.634 2°55.97 117.7 4.4 295 -999
2004-07-13 06:20:08 51°13.637 2°55.959 116.9 4.4 294 -999
2004-07-13 06:20:13 51°13.639 2°55.95 116.2 4.5 294 -999
2004-07-13 06:20:18 51°13.642 2°55.941 115.4 4.5 293 -999
2004-07-13 06:20:23 51°13.644 2°55.932 114.5 4.5 293 -999
2004-07-13 06:20:28 51°13.646 2°55.923 113.4 4.5 292 -999
2004-07-13 06:20:33 51°13.649 2°55.913 111.9 4.6 290 -999
2004-07-13 06:20:37 51°13.65 2°55.906 110.5 4.6 289 -999
2004-07-13 06:20:42 51°13.652 2°55.896 109.3 4.6 287 -999
2004-07-13 06:20:48 51°13.654 2°55.884 107.7 4.6 286 -999
2004-07-13 06:20:53 51°13.656 2°55.874 105.9 4.6 283 -999
2004-07-13 06:20:58 51°13.657 2°55.864 104 4.6 282 -999
2004-07-13 06:21:03 51°13.658 2°55.854 102.2 4.6 280 -999
2004-07-13 06:21:08 51°13.659 2°55.844 100.1 4.6 278 -999
2004-07-13 06:21:13 51°13.659 2°55.834 97.8 4.6 275 -999
2004-07-13 06:21:18 51°13.66 2°55.824 95.6 4.6 273 -999
2004-07-13 06:21:24 51°13.66 2°55.812 93.2 4.7 272 -999
2004-07-13 06:21:28 51°13.66 2°55.803 91.1 4.6 268 -999
2004-07-13 06:21:33 51°13.659 2°55.794 89 4.3 267 -999
2004-07-13 06:21:38 51°13.659 2°55.785 87.3 4 266 -999
2004-07-13 06:21:43 51°13.659 2°55.779 85.7 3.4 264 -999
2004-07-13 06:21:48 51°13.658 2°55.775 83.2 1.7 263 -999
2004-07-13 06:21:53 51°13.658 2°55.773 79.1 0.9 279 -999
2004-07-13 06:21:58 51°13.659 2°55.773 74.2 0.3 345 -999
2004-07-13 06:22:02 51°13.66 2°55.774 67.5 1 42 10.9
2004-07-13 06:22:08 51°13.663 2°55.779 60.4 1.9 42 -999
2004-07-13 06:22:13 51°13.667 2°55.782 50.2 3.3 31 -999
2004-07-13 06:22:18 51°13.672 2°55.786 37.9 3.9 24 10.5
2004-07-13 06:22:22 51°13.677 2°55.788 29.9 4.5 12 11.3
2004-07-13 06:22:28 51°13.685 2°55.789 21.8 5 5 12.2
2004-07-13 06:22:33 51°13.693 2°55.788 12 5.5 354 13
2004-07-13 06:22:36 51°13.698 2°55.786 2.1 5.7 346 13.1
2004-07-13 06:22:42 51°13.707 2°55.78 351.9 6.1 340 13.7
2004-07-13 06:22:48 51°13.717 2°55.77 341.7 6.6 333 13
2004-07-13 06:22:53 51°13.725 2°55.762 334.2 7.4 328 12.3
2004-07-13 06:22:57 51°13.732 2°55.754 330.9 7.3 325 10.2
2004-07-13 06:23:02 51°13.74 2°55.745 327.7 7.1 322 10.3
2004-07-13 06:23:08 51°13.749 2°55.733 324.5 6.8 320 9.6
2004-07-13 06:23:13 51°13.755 2°55.723 322.5 6.9 318 9.8
2004-07-13 06:23:17 51°13.761 2°55.715 321.5 6.9 317 9.7
2004-07-13 06:23:22 51°13.768 2°55.704 320.7 1.3 316 9.7
2004-07-13 06:23:28 51°13.777 2°55.692 320.4 6.9 318 9.7
2004-07-13 06:23:33 51°13.785 2°55.682 321.2 7.3 319 9.9
2004-07-13 06:23:37 51°13.791 2°55.674 322.6 7.2 320 10.1
2004-07-13 06:23:42 51°13.799 2°55.663 324.3 7.3 322 10.4
2004-07-13 06:23:48 51°13.808 2°55.651 326.1 7.3 323 10.4
2004-07-13 06:23:53 51°13.816 2°55.642 328.1 7.4 326 10.5
2004-07-13 06:23:56 51°13.821 2°55.636 330.3 7.4 327 10.3
2004-07-13 06:24:02 51°13.832 2°55.626 332.8 7.4 329 10.2
2004-07-13 06:24:08 51°13.843 2°55.617 335.3 7.4 331 10.1
2004-07-13 06:24:13 51°13.852 2°55.609 336.7 7.5 333 10.3
2004-07-13 06:24:17 51°13.86 2°55.604 337.6 7.5 333 10.3
2004-07-13 06:24:22 51°13.869 2°55.596 338.4 7.5 334 10.9
2004-07-13 06:24:27 51°13.878 2°55.589 339 7.5 335 10
2004-07-13 06:24:31 51°13.886 2°55.583 339.6 7.5 335 10.3
2004-07-13 06:24:36 51°13.896 2°55.577 340.1 7.6 335 10.1
2004-07-13 06:24:41 51°13.905 2°55.57 340.4 7.6 335 10.3
2004-07-13 06:24:48 51°13.919 2°55.56 340.4 7.6 336 10
2004-07-13 06:24:52 51°13.926 2°55.555 340.4 7.6 336 10.5
2004-07-13 06:24:57 51°13.936 2°55.548 340.7 7.6 336 10.9
2004-07-13 06:25:02 51°13.946 2°55.542 341.5 7.6 338 11.1
2004-07-13 06:25:08 51°13.957 2°55.534 342.2 7.6 337 11.3
2004-07-13 06:25:12 51°13.965 2°55.529 342.3 7.7 338 11.7
2004-07-13 06:25:18 51°13.977 2°55.521 342.4 7.8 338 12.3
2004-07-13 06:25:22 51°13.985 2°55.516 343.3 7.9 339 12.4
2004-07-13 06:25:28 51°13.998 2°55.509 344.7 7.9 340 12.5
2004-07-13 06:25:33 51°14.008 2°55.503 345.7 8 341 11.8
2004-07-13 06:25:37 51°14.016 2°55.499 346.3 8 341 11.7
2004-07-13 06:25:42 51°14.027 2°55.493 346.8 8 342 11.4
2004-07-13 06:25:48 51°14.04 2°55.486 346.9 8 341 11.7
2004-07-13 06:25:53 51°14.05 2°55.481 346.8 8.1 341 11.8
2004-07-13 06:25:57 51°14.059 2°55.476 346.3 8.1 341 12
2004-07-13 06:26:02 51°14.069 2°55.47 345.8 8.1 341 12.1
2004-07-13 06:26:07 51°14.08 2°55.464 345.4 8.1 341 12
2004-07-13 06:26:12 51°14.09 2°55.458 345.5 8.2 339 12.1
2004-07-13 06:26:16 51°14.099 2°55.453 345.2 8.4 340 12.2
2004-07-13 06:26:22 51°14.112 2°55.445 344.7 8.6 339 12.2
2004-07-13 06:26:28 51°14.126 2°55.436 343.6 8.7 338 12.2
2004-07-13 06:26:32 51°14.135 2°55.43 342.2 8.9 336 12.3
2004-07-13 06:26:37 51°14.146 2°55.421 341.3 9.1 335 12.2
2004-07-13 06:26:42 51°14.158 2°55.412 340.4 9.2 334 12
2004-07-13 06:26:48 51°14.172 2°55.401 339.3 9.4 332 12
2004-07-13 06:26:52 51°14.181 2°55.392 336.7 9.5 328 11.9
2004-07-13 06:26:58 51°14.194 2°55.377 333.2 9.6 325 12.1
2004-07-13 06:27:02 51°14.202 2°55.366 330.2 9.8 323 12.2
2004-07-13 06:27:08 51°14.215 2°55.35 327.5 9.9 320 12.3
2004-07-13 06:27:13 51°14.225 2°55.335 325.2 9.9 318 12.2
2004-07-13 06:27:17 51°14.233 2°55.322 323 10 316 12.2
2004-07-13 06:27:22 51°14.243 2°55.306 320.8 10 315 11.9
2004-07-13 06:27:27 51°14.253 2°55.29 319.3 10.3 313 11.9
2004-07-13 06:27:32 51°14.262 2°55.272 317.4 10.5 310 12
2004-07-13 06:27:36 51°14.27 2°55.257 315.1 10.7 310 11.9
2004-07-13 06:27:42 51°14.281 2°55.235 314.4 10.9 309 11.6
2004-07-13 06:27:46 51°14.289 2°55.22 314.3 11 309 11.7
2004-07-13 06:27:52 51°14.301 2°55.197 314.3 11.2 309 11.8
2004-07-13 06:27:57 51°14.31 2°55.176 313.2 11.3 306 11.5
2004-07-13 06:28:02 51°14.319 2°55.156 311.2 11.5 305 11.5
2004-07-13 06:28:08 51°14.329 2°55.131 310.3 11.4 304 11.3
2004-07-13 06:28:13 51°14.338 2°55.11 309.5 11.5 305 11.3
2004-07-13 06:28:17 51°14.346 2°55.093 309.5 11.6 304 11.2
2004-07-13 06:28:22 51°14.355 2°55.072 309.9 11.7 305 11.4
2004-07-13 06:28:28 51°14.367 2°55.046 310.6 11.8 306 11.3
2004-07-13 06:28:32 51°14.375 2°55.029 311.3 12.2 307 11.5
2004-07-13 06:28:36 51°14.383 2°55.012 312.3 12.5 308 11.4
2004-07-13 06:28:42 51°14.396 2°54.986 313.5 12.6 309 11.2
2004-07-13 06:28:48 51°14.41 2°54.961 314.4 12.7 311 11.4
2004-07-13 06:28:53 51°14.422 2°54.94 316.2 12.7 312 11.1
2004-07-13 06:28:57 51°14.432 2°54.923 318 12.9 315 11.6
2004-07-13 06:29:02 51°14.445 2°54.904 320.8 12.9 316 11.1
2004-07-13 06:29:08 51°14.461 2°54.882 322.4 12.9 317 11.1
2004-07-13 06:29:12 51°14.472 2°54.867 324.8 12.9 320 11.1
2004-07-13 06:29:18 51°14.489 2°54.846 326.2 13 321 10.9
2004-07-13 06:29:22 51°14.5 2°54.831 328 12.9 322 10.7
2004-07-13 06:29:28 51°14.517 2°54.81 329.1 13 323 10.5
2004-07-13 06:29:33 51°14.532 2°54.793 330.2 13.1 324 10.4
2004-07-13 06:29:37 51°14.544 2°54.78 330.8 13.1 325 10.9
2004-07-13 06:29:42 51°14.559 2°54.763 331.4 13.1 324 10.8
2004-07-13 06:29:48 51°14.576 2°54.743 331.6 13 325 10.7
2004-07-13 06:29:52 51°14.588 2°54.73 331.6 13.1 324 10.5
2004-07-13 06:29:58 51°14.606 2°54.71 331.4 13.3 324 10.4
2004-07-13 06:30:02 51°14.618 2°54.695 330.9 12.9 324 10.2
2004-07-13 06:30:08 51°14.635 2°54.675 330.8 13.1 324 10.1
2004-07-13 06:30:13 51°14.649 2°54.658 330.3 12.9 324 9.9
2004-07-13 06:30:17 51°14.661 2°54.644 330.2 12.9 324 9.8
2004-07-13 06:30:20 51°14.67 2°54.633 330.4 13.1 324 10
2004-07-13 06:30:27 51°14.691 2°54.61 330.8 13.1 324 10.1
2004-07-13 06:30:32 51°14.705 2°54.592 330.7 12.8 324 10.6
2004-07-13 06:30:36 51°14.717 2°54.578 330.6 12.7 323 10.1
2004-07-13 06:30:42 51°14.733 2°54.558 330.1 12.9 324 10.1
2004-07-13 06:30:48 51°14.751 2°54.539 330.4 13 325 10.2
2004-07-13 06:30:52 51°14.763 2°54.525 331.2 12.9 325 10.3
2004-07-13 06:30:58 51°14.78 2°54.506 331.3 12.9 325 10.4
2004-07-13 06:31:02 51°14.792 2°54.493 331.6 12.8 325 10.3
2004-07-13 06:31:08 51°14.81 2°54.474 331.6 13 325 10
2004-07-13 06:31:12 51°14.822 2°54.461 331.6 13.1 325 10.2
2004-07-13 06:31:18 51°14.84 2°54.441 331.4 13.1 324 10.2
2004-07-13 06:31:22 51°14.852 2°54.427 330.9 13.1 325 10.1
2004-07-13 06:31:28 51°14.869 2°54.407 330.9 13.1 325 9.8
2004-07-13 06:31:33 51°14.884 2°54.39 330.4 13.1 324 9.8
2004-07-13 06:31:37 51°14.895 2°54.376 330.2 13.1 324 9.8
2004-07-13 06:31:42 51°14.91 2°54.359 330.2 13.1 324 9.6
2004-07-13 06:31:48 51°14.927 2°54.339 329.8 13 323 9.4
2004-07-13 06:31:53 51°14.941 2°54.322 329.5 12.8 324 9.1
2004-07-13 06:31:57 51°14.953 2°54.308 330 12.7 324 9.1
2004-07-13 06:32:02 51°14.967 2°54.292 330.6 12.7 325 9
2004-07-13 06:32:05 51°14.976 2°54.282 331 12.8 325 9.1
2004-07-13 06:32:13 51°15 2°54.256 331.4 13 325 9
2004-07-13 06:32:17 51°15.011 2°54.243 331.6 13 325 9
2004-07-13 06:32:22 51°15.026 2°54.226 331.5 12.9 325 9.1
2004-07-13 06:32:27 51°15.041 2°54.21 331.3 13 324 9.2
2004-07-13 06:32:33 51°15.058 2°54.189 331.3 13 324 9.2
2004-07-13 06:32:37 51°15.07 2°54.176 331 13 323 9.3
2004-07-13 06:32:42 51°15.084 2°54.159 330.3 12.9 323 9.4
2004-07-13 06:32:48 51°15.102 2°54.138 329.9 13.1 324 9.5
2004-07-13 06:32:52 51°15.113 2°54.124 330.2 13.1 324 9.7
2004-07-13 06:32:58 51°15.131 2°54.104 330.2 13.1 323 9.6
2004-07-13 06:33:02 51°15.143 2°54.09 330.2 13.1 323 9.6
2004-07-13 06:33:06 51°15.154 2°54.076 330.2 13.1 324 9.7
2004-07-13 06:33:13 51°15.175 2°54.052 330.2 13.1 324 9.7
2004-07-13 06:33:16 51°15.183 2°54.041 330.4 13.1 323 9.7
2004-07-13 06:33:22 51°15.201 2°54.021 330.3 13.1 324 9.9
2004-07-13 06:33:27 51°15.215 2°54.004 330.6 13.2 324 9.8
2004-07-13 06:33:33 51°15.233 2°53.983 330.6 13.2 323 9.8
2004-07-13 06:33:37 51°15.244 2°53.969 330.3 13.1 323 10.2
2004-07-13 06:33:42 51°15.259 2°53.952 330.2 13.2 323 10
2004-07-13 06:33:48 51°15.276 2°53.931 330 13.1 323 10.1
2004-07-13 06:33:53 51°15.291 2°53.913 329.9 13.1 323 10
2004-07-13 06:33:57 51°15.302 2°53.899 330.1 13.2 322 10.3
2004-07-13 06:34:02 51°15.317 2°53.881 330 13.2 323 10.3
2004-07-13 06:34:08 51°15.334 2°53.86 329.9 13.2 322 10.4
2004-07-13 06:34:12 51°15.346 2°53.846 329.6 13.1 323 10.2
2004-07-13 06:34:16 51°15.357 2°53.832 330.2 13.2 322 10.5
2004-07-13 06:34:22 51°15.375 2°53.81 330.3 13 322 10.6
2004-07-13 06:34:28 51°15.392 2°53.789 330.3 13.1 322 10.6
2004-07-13 06:34:32 51°15.403 2°53.775 330.1 13.2 323 10.5
2004-07-13 06:34:38 51°15.421 2°53.754 330.3 13.2 322 10.8
2004-07-13 06:34:42 51°15.432 2°53.74 330.9 13.1 323 10.9
2004-07-13 06:34:48 51°15.45 2°53.719 330.6 13.2 323 10.6
2004-07-13 06:34:52 51°15.462 2°53.706 330.9 13.1 326 10.7
2004-07-13 06:34:57 51°15.477 2°53.691 333 13.1 328 11.1
2004-07-13 06:35:02 51°15.493 2°53.676 335.1 13.1 329 11.4
2004-07-13 06:35:08 51°15.512 2°53.659 337.5 13 331 11.2
2004-07-13 06:35:13 51°15.527 2°53.646 338.3 12.9 331 11.1
2004-07-13 06:35:16 51°15.537 2°53.638 339.2 12.9 331 11.1
2004-07-13 06:35:22 51°15.556 2°53.621 339.4 12.9 333 11.3
2004-07-13 06:35:28 51°15.575 2°53.605 340 13 332 11.3
2004-07-13 06:35:33 51°15.591 2°53.592 340.3 13 334 11.4
2004-07-13 06:35:37 51°15.603 2°53.582 340.8 12.9 332 11.6
2004-07-13 06:35:42 51°15.62 2°53.569 340.8 12.8 333 11.7
2004-07-13 06:35:47 51°15.635 2°53.555 341.2 12.9 332 11.7
2004-07-13 06:35:52 51°15.651 2°53.542 340.7 12.8 331 11.8
2004-07-13 06:35:56 51°15.664 2°53.531 340.3 12.9 331 11.7
2004-07-13 06:36:02 51°15.683 2°53.514 339.6 13 331 11.8
2004-07-13 06:36:08 51°15.702 2°53.497 339.4 13 331 11.8
2004-07-13 06:36:13 51°15.717 2°53.483 339.6 13 331 12
2004-07-13 06:36:18 51°15.733 2°53.469 339.6 13 331 11.9
2004-07-13 06:36:22 51°15.746 2°53.458 339.6 13.2 331 12
2004-07-13 06:36:28 51°15.765 2°53.441 339.7 13 331 12
2004-07-13 06:36:32 51°15.777 2°53.43 339.8 13 331 11.9
2004-07-13 06:36:36 51°15.79 2°53.419 340 13.1 331 12.1
2004-07-13 06:36:41 51°15.806 2°53.406 340.2 13 332 12.2
2004-07-13 06:36:48 51°15.828 2°53.387 340.4 13.1 332 12
2004-07-13 06:36:52 51°15.841 2°53.376 340.6 13.2 332 12.2
2004-07-13 06:36:56 51°15.854 2°53.365 340.7 13.2 332 12.3
2004-07-13 06:37:02 51°15.873 2°53.349 340.4 13 332 12.2
2004-07-13 06:37:07 51°15.889 2°53.335 339.6 13 331 12.3
2004-07-13 06:37:13 51°15.908 2°53.318 339.6 13.1 331 12.3
2004-07-13 06:37:17 51°15.921 2°53.307 339.5 13.1 331 12.4
2004-07-13 06:37:22 51°15.937 2°53.294 339.6 13.1 332 12.3
2004-07-13 06:37:28 51°15.956 2°53.277 339.6 13.2 331 12.5
2004-07-13 06:37:33 51°15.972 2°53.263 339.6 13.1 331 12.5
2004-07-13 06:37:38 51°15.988 2°53.249 339.4 13.1 331 12.4
2004-07-13 06:37:42 51°16.001 2°53.237 339.3 13.1 331 12.6
2004-07-13 06:37:45 51°16.01 2°53.229 339.3 13.2 331 12.7
2004-07-13 06:37:53 51°16.036 2°53.206 339.1 13.1 331 12.8
2004-07-13 06:37:58 51°16.052 2°53.192 339.1 13.1 331 12.7
2004-07-13 06:38:02 51°16.065 2°53.181 339.5 13 331 12.6
2004-07-13 06:38:08 51°16.084 2°53.165 339.5 13 332 12.5
2004-07-13 06:38:13 51°16.1 2°53.151 340 13.2 332 12.7
2004-07-13 06:38:17 51°16.113 2°53.14 340.2 13.1 332 13
2004-07-13 06:38:22 51°16.129 2°53.126 340.3 13.1 332 12.8
2004-07-13 06:38:28 51°16.148 2°53.11 340.4 13.1 332 12.8
2004-07-13 06:38:32 51°16.161 2°53.099 340.2 13.1 332 12.9
2004-07-13 06:38:37 51°16.177 2°53.085 340.1 13.3 332 13.2
2004-07-13 06:38:42 51°16.193 2°53.071 339.8 12.8 331 12.9
2004-07-13 06:38:46 51°16.205 2°53.06 339 12.9 331 12.8
2004-07-13 06:38:52 51°16.224 2°53.044 339.3 13 332 13.1
2004-07-13 06:38:56 51°16.237 2°53.033 339.6 13.1 332 13
2004-07-13 06:39:02 51°16.256 2°53.017 339.6 13.1 332 13.1
2004-07-13 06:39:07 51°16.272 2°53.005 340.4 12.9 334 12.9
2004-07-13 06:39:12 51°16.289 2°52.992 341.4 13.2 335 12.8
2004-07-13 06:39:18 51°16.308 2°52.978 342.2 13.1 336 13.2
2004-07-13 06:39:22 51°16.322 2°52.969 343.5 12.9 337 13.1
2004-07-13 06:39:28 51°16.342 2°52.956 343.9 12.9 337 13
2004-07-13 06:39:32 51°16.355 2°52.947 344.3 13 337 12.9
2004-07-13 06:39:38 51°16.375 2°52.934 344.4 13 337 13.1
2004-07-13 06:39:42 51°16.388 2°52.925 344.4 12.9 336 13
2004-07-13 06:39:48 51°16.408 2°52.911 344 12.9 337 13
2004-07-13 06:39:53 51°16.424 2°52.9 343.8 12.9 337 13.1
2004-07-13 06:39:57 51°16.437 2°52.891 343.7 12.8 337 13
2004-07-13 06:40:02 51°16.453 2°52.88 343.9 12.8 337 12.9
2004-07-13 06:40:08 51°16.473 2°52.866 344 12.9 337 12.9
2004-07-13 06:40:12 51°16.486 2°52.857 343.8 12.9 336 12.4
2004-07-13 06:40:17 51°16.502 2°52.845 343.6 12.7 336 12.7
2004-07-13 06:40:22 51°16.518 2°52.833 343.4 12.7 335 12.7
2004-07-13 06:40:28 51°16.537 2°52.82 343.1 12.8 336 12.3
2004-07-13 06:40:33 51°16.553 2°52.808 343.1 12.6 336 12.3
2004-07-13 06:40:36 51°16.563 2°52.802 342.7 12.7 336 12.5
2004-07-13 06:40:42 51°16.582 2°52.788 343.3 12.5 337 12.2
2004-07-13 06:40:47 51°16.598 2°52.778 343.7 12.7 337 12
2004-07-13 06:40:52 51°16.614 2°52.766 344 12.8 337 12.2
2004-07-13 06:40:56 51°16.627 2°52.757 343.9 12.9 337 12.1
2004-07-13 06:41:02 51°16.647 2°52.744 344 12.8 336 12
2004-07-13 06:41:08 51°16.666 2°52.73 343.8 12.7 336 11.8
2004-07-13 06:41:12 51°16.68 2°52.721 343.4 12.9 336 11.7
2004-07-13 06:41:18 51°16.699 2°52.707 342.8 12.9 336 11.5
2004-07-13 06:41:22 51°16.712 2°52.698 342.8 12.8 337 11.2
2004-07-13 06:41:28 51°16.732 2°52.685 343.6 12.8 338 11.2
2004-07-13 06:41:33 51°16.748 2°52.675 344.7 12.6 338 10.9
2004-07-13 06:41:36 51°16.758 2°52.669 345.5 12.7 339 10.4
2004-07-13 06:41:42 51°16.778 2°52.657 346.1 12.7 339 10.4
2004-07-13 06:41:46 51°16.791 2°52.649 346.4 12.6 340 10.8
2004-07-13 06:41:52 51°16.81 2°52.638 347.1 12.2 340 10.5
2004-07-13 06:41:56 51°16.823 2°52.631 347.2 12.5 340 10.3
2004-07-13 06:42:02 51°16.842 2°52.619 347.5 12.6 339 10.1
2004-07-13 06:42:07 51°16.859 2°52.609 347.1 12.5 340 10.1
2004-07-13 06:42:12 51°16.875 2°52.599 346.9 12.3 339 10.5
2004-07-13 06:42:17 51°16.891 2°52.589 346.6 12.5 339 10.5
2004-07-13 06:42:22 51°16.907 2°52.579 346.6 12.4 338 10.3
2004-07-13 06:42:28 51°16.926 2°52.567 346.3 12.5 338 10.6
2004-07-13 06:42:33 51°16.942 2°52.557 346.1 12.4 338 11
2004-07-13 06:42:37 51°16.955 2°52.548 345.7 12.5 338 10.8
2004-07-13 06:42:42 51°16.971 2°52.538 345.8 12.5 338 10.6
2004-07-13 06:42:48 51°16.99 2°52.526 346.2 12.5 339 10.5
2004-07-13 06:42:52 51°17.003 2°52.518 346.2 12.3 338 10.4
2004-07-13 06:42:57 51°17.019 2°52.508 346.3 12.3 339 10.3
2004-07-13 06:43:02 51°17.035 2°52.499 346.9 12.3 343 10.4
2004-07-13 06:43:08 51°17.055 2°52.491 350.2 12.5 345 10.4
2004-07-13 06:43:13 51°17.072 2°52.487 353.7 12.4 350 10.5
2004-07-13 06:43:18 51°17.089 2°52.483 357 12.4 353 10.6
2004-07-13 06:43:22 51°17.103 2°52.481 359.6 12.4 355 10.5
2004-07-13 06:43:28 51°17.124 2°52.479 1.8 12.4 356 10.5
2004-07-13 06:43:33 51°17.141 2°52.476 3 12.4 356 10.6
2004-07-13 06:43:37 51°17.155 2°52.476 3.7 12.5 357 10.7
2004-07-13 06:43:42 51°17.172 2°52.474 4.3 12.5 357 10.6
2004-07-13 06:43:47 51°17.189 2°52.473 4.6 12.6 357 10.7
2004-07-13 06:43:53 51°17.21 2°52.472 4.7 12.5 358 10.9
2004-07-13 06:43:58 51°17.227 2°52.47 4.8 12.4 357 10.5
2004-07-13 06:44:02 51°17.241 2°52.469 4.7 12.4 357 10.9
2004-07-13 06:44:08 51°17.262 2°52.467 4.6 12.3 357 11.1
2004-07-13 06:44:13 51°17.279 2°52.465 4.3 12.3 357 10.9
2004-07-13 06:44:17 51°17.293 2°52.463 4.3 12.2 356 10.7
2004-07-13 06:44:22 51°17.31 2°52.462 3.8 12.2 357 10.8
2004-07-13 06:44:28 51°17.33 2°52.459 3.8 12.4 356 10.9
2004-07-13 06:44:33 51°17.348 2°52.457 3.7 12.5 355 11
2004-07-13 06:44:38 51°17.365 2°52.455 3.4 12.5 355 11.2
2004-07-13 06:44:42 51°17.379 2°52.453 3.2 12.5 355 11
2004-07-13 06:44:48 51°17.399 2°52.45 3 12.4 355 11.1
2004-07-13 06:44:53 51°17.416 2°52.448 2.9 12.5 356 11.2
2004-07-13 06:44:57 51°17.43 2°52.446 3.3 12.6 355 11.1
2004-07-13 06:45:02 51°17.447 2°52.444 3.3 12.5 356 11.2
2004-07-13 06:45:08 51°17.468 2°52.441 3.5 12.4 355 11.1
2004-07-13 06:45:13 51°17.485 2°52.439 3.2 12.6 355 11.3
2004-07-13 06:45:17 51°17.499 2°52.437 2.9 12.7 355 11.2
2004-07-13 06:45:22 51°17.516 2°52.435 2.9 12.6 356 11.1
2004-07-13 06:45:28 51°17.537 2°52.433 3.3 12.5 356 11.1
2004-07-13 06:45:33 51°17.555 2°52.433 5 12.7 359 10.9
2004-07-13 06:45:37 51°17.569 2°52.432 6.1 12.7 359 11.2
2004-07-13 06:45:42 51°17.586 2°52.432 6.8 12.5   11.1
2004-07-13 06:45:48 51°17.607 2°52.432 7.4 12.5   10.9
2004-07-13 06:45:53 51°17.625 2°52.433 8.2 12.6 1 11.2
2004-07-13 06:45:57 51°17.639 2°52.433 8.2 12.6   11.1
2004-07-13 06:46:02 51°17.656 2°52.433 7.8 12.6 1 11.1
2004-07-13 06:46:07 51°17.674 2°52.433 7.7 12.6   11.2
2004-07-13 06:46:12 51°17.691 2°52.433 7.3 12.4   10.8
2004-07-13 06:46:18 51°17.712 2°52.433 6.9 12.4 359 10.9
2004-07-13 06:46:22 51°17.726 2°52.433 6.8 12.5   11
2004-07-13 06:46:28 51°17.747 2°52.434 7.3 12.4   11.1
2004-07-13 06:46:33 51°17.765 2°52.434 7.7 12.6   10.8
2004-07-13 06:46:37 51°17.778 2°52.434 7.5 12.4   11
2004-07-13 06:46:41 51°17.792 2°52.434 7 12.4   10.9
2004-07-13 06:46:48 51°17.817 2°52.433 6.9 12.4 359 11.2
2004-07-13 06:46:53 51°17.834 2°52.433 6.5 12.2 359 10.9
2004-07-13 06:46:58 51°17.851 2°52.432 6.1 12.3 359 11
2004-07-13 06:47:02 51°17.865 2°52.432 6.9 12.4   11.1
2004-07-13 06:47:08 51°17.886 2°52.432 6.9 12.5   11.2
2004-07-13 06:47:13 51°17.903 2°52.432 7.2 12.7 359 11.4
2004-07-13 06:47:17 51°17.917 2°52.432 7.1 12.6 1 11.6
2004-07-13 06:47:21 51°17.931 2°52.433 7.6 12.5   11.4
2004-07-13 06:47:28 51°17.955 2°52.433 7.2 12.4 1 11.3
2004-07-13 06:47:33 51°17.972 2°52.433 7.3 12.4   11.5
2004-07-13 06:47:37 51°17.986 2°52.434 7.4 12.3 2 11.4
2004-07-13 06:47:42 51°18.003 2°52.434 7.3 12.3 1 11.4
2004-07-13 06:47:48 51°18.023 2°52.439 9.8 12.5 9 11.5
2004-07-13 06:47:52 51°18.036 2°52.442 13.2 12.1 10 11.3
2004-07-13 06:47:58 51°18.056 2°52.451 16 12.2 15 11.4
2004-07-13 06:48:02 51°18.069 2°52.456 20.5 12.4 15 11.4
2004-07-13 06:48:08 51°18.089 2°52.466 21.3 12.4 18 11.6
2004-07-13 06:48:12 51°18.102 2°52.473 23.2 12.5 18 11.6
2004-07-13 06:48:16 51°18.114 2°52.48 24.7 12.5 21 11.8
2004-07-13 06:48:22 51°18.134 2°52.493 26.5 12.5 22 11.6
2004-07-13 06:48:28 51°18.153 2°52.506 28 12.6 23 11.5
2004-07-13 06:48:32 51°18.166 2°52.516 28.7 12.5 25 11.6
2004-07-13 06:48:35 51°18.176 2°52.523 29.7 12.4 24 11.5
2004-07-13 06:48:42 51°18.198 2°52.539 30.2 12.4 25 11.5
2004-07-13 06:48:48 51°18.217 2°52.553 30.8 12.5 25 11.6
2004-07-13 06:48:52 51°18.229 2°52.562 30.6 12.6 24 11.7
2004-07-13 06:48:57 51°18.246 2°52.574 30.1 12.8 24 11.8
2004-07-13 06:49:02 51°18.262 2°52.585 29.9 12.7 23 11.6
2004-07-13 06:49:08 51°18.281 2°52.598 29.2 12.5 24 11.7
2004-07-13 06:49:13 51°18.297 2°52.61 29.5 12.9 23 11.8
2004-07-13 06:49:18 51°18.313 2°52.62 28.8 12.8 23 12
2004-07-13 06:49:22 51°18.326 2°52.629 28.6 12.5 24 11.9
2004-07-13 06:49:28 51°18.345 2°52.643 29.7 12.7 23 11.8
2004-07-13 06:49:33 51°18.361 2°52.654 29.2 12.8 23 11.8
2004-07-13 06:49:37 51°18.374 2°52.662 28.3 12.6 23 12
2004-07-13 06:49:42 51°18.39 2°52.674 28.5 12.6 24 11.9
2004-07-13 06:49:48 51°18.41 2°52.687 28.8 12.6 24 12
2004-07-13 06:49:53 51°18.426 2°52.698 29 12.7 23 12
2004-07-13 06:49:57 51°18.439 2°52.707 29 12.8 24 12
2004-07-13 06:50:02 51°18.455 2°52.718 28.9 12.8 23 12.1
2004-07-13 06:50:06 51°18.468 2°52.727 28.5 12.8 23 12.1
2004-07-13 06:50:13 51°18.491 2°52.742 28.6 12.8 23 12.1
2004-07-13 06:50:18 51°18.508 2°52.754 28.7 13 23 12.1
2004-07-13 06:50:21 51°18.518 2°52.76 28.5 13 23 12.2
2004-07-13 06:50:28 51°18.541 2°52.776 28 12.8 23 12.2
2004-07-13 06:50:32 51°18.554 2°52.784 28.2 12.9 24 12.1
2004-07-13 06:50:38 51°18.574 2°52.798 28.5 12.9 22 12
2004-07-13 06:50:42 51°18.587 2°52.806 28 13 23 12.1
2004-07-13 06:50:48 51°18.607 2°52.82 28.1 12.9 23 12.1
2004-07-13 06:50:53 51°18.623 2°52.832 28.4 13 24 12.1
2004-07-13 06:50:57 51°18.637 2°52.84 28.5 12.9 22 12.3
2004-07-13 06:51:02 51°18.653 2°52.852 28.1 12.8 23 12.3
2004-07-13 06:51:07 51°18.67 2°52.863 27.8 12.8 23 12.5
2004-07-13 06:51:13 51°18.69 2°52.876 27.3 13 22 12.5
2004-07-13 06:51:17 51°18.703 2°52.885 27.4 13.1 22 12.4
2004-07-13 06:51:22 51°18.72 2°52.895 27.1 12.9 22 12.3
2004-07-13 06:51:28 51°18.739 2°52.909 27.8 12.6 23 12.1
2004-07-13 06:51:33 51°18.755 2°52.92 28 12.8 23 12.3
2004-07-13 06:51:37 51°18.768 2°52.929 27.8 12.7 23 12.5
2004-07-13 06:51:42 51°18.785 2°52.939 27.8 12.7 22 12.3
2004-07-13 06:51:45 51°18.795 2°52.946 27.8 12.7 23 12.6
2004-07-13 06:51:53 51°18.821 2°52.963 27.5 12.8 22 12.6
2004-07-13 06:51:57 51°18.834 2°52.971 27.5 12.8 22 12.6
2004-07-13 06:52:02 51°18.851 2°52.982 27.5 13 22 12.6
2004-07-13 06:52:08 51°18.871 2°52.995 27.2 12.9 21 12.7
2004-07-13 06:52:12 51°18.884 2°53.004 27 12.8 23 13
2004-07-13 06:52:17 51°18.9 2°53.014 27.3 12.7 23 12.7
2004-07-13 06:52:22 51°18.916 2°53.025 28.2 12.7 23 12.5
2004-07-13 06:52:28 51°18.936 2°53.039 28.7 12.7 23 12.5
2004-07-13 06:52:32 51°18.949 2°53.047 28.2 12.8 23 12.8
2004-07-13 06:52:38 51°18.969 2°53.06 28 12.7 22 12.7
2004-07-13 06:52:42 51°18.982 2°53.068 27.3 12.8 22 12.9
2004-07-13 06:52:48 51°19.002 2°53.081 27.5 12.8 22 12.8
2004-07-13 06:52:53 51°19.018 2°53.091 26.7 12.8 22 12.8
2004-07-13 06:52:57 51°19.031 2°53.1 27.2 12.6 23 12.9
2004-07-13 06:53:02 51°19.047 2°53.11 27.7 12.7 22 12.9
2004-07-13 06:53:08 51°19.067 2°53.123 27.5 12.7 21 13
2004-07-13 06:53:13 51°19.083 2°53.133 27.1 12.8 23 12.8
2004-07-13 06:53:18 51°19.1 2°53.144 27.5 12.6 22 13.1
2004-07-13 06:53:21 51°19.11 2°53.15 27.6 12.6 22 13
2004-07-13 06:53:27 51°19.129 2°53.163 27.8 12.7 22 13.1
2004-07-13 06:53:33 51°19.149 2°53.175 27.3 12.7 21 13.2
2004-07-13 06:53:36 51°19.159 2°53.182 27.1 12.8 22 13.3
2004-07-13 06:53:41 51°19.175 2°53.192 27.1 12.8 21 13.4
2004-07-13 06:53:48 51°19.198 2°53.207 27.1 12.7 22 13.4
2004-07-13 06:53:52 51°19.212 2°53.215 27.2 12.5 22 13.4
2004-07-13 06:53:57 51°19.227 2°53.226 27.5 12.6 23 13.3
2004-07-13 06:54:02 51°19.244 2°53.236 28.4 12.8 21 13.4
2004-07-13 06:54:07 51°19.26 2°53.246 27.6 12.6 22 13.4
2004-07-13 06:54:13 51°19.28 2°53.259 27.6 12.7 21 13.6
2004-07-13 06:54:17 51°19.293 2°53.267 27.3 12.8 21 13.7
2004-07-13 06:54:22 51°19.31 2°53.277 26.7 12.7 22 13.5
2004-07-13 06:54:28 51°19.329 2°53.291 27 12.8 21 13.6
2004-07-13 06:54:30 51°19.336 2°53.295 27.5 12.6 22 13.7
2004-07-13 06:54:38 51°19.361 2°53.312 28 12.4 23 13.7
2004-07-13 06:54:42 51°19.374 2°53.32 27.9 12.4 23 13.3
2004-07-13 06:54:48 51°19.393 2°53.332 27.7 12.2 22 13.8
2004-07-13 06:54:52 51°19.406 2°53.34 27.5 12.3 21 14
2004-07-13 06:54:56 51°19.419 2°53.349 27.1 12.4 22 13.8
2004-07-13 06:55:02 51°19.438 2°53.361 27.2 12.4 21 14.1
2004-07-13 06:55:07 51°19.454 2°53.37 26.8 12.6 21 14
2004-07-13 06:55:10 51°19.464 2°53.377 27.4 12.7 21 14.1
2004-07-13 06:55:18 51°19.49 2°53.393 27.4 12.7 21 14.1
2004-07-13 06:55:22 51°19.503 2°53.401 26.9 12.7 20 14.2
2004-07-13 06:55:28 51°19.523 2°53.413 26.9 12.7 22 14.3
2004-07-13 06:55:32 51°19.536 2°53.423 27.3 12.8 23 14.3
2004-07-13 06:55:36 51°19.549 2°53.432 28.3 12.8 22 14.3
2004-07-13 06:55:42 51°19.569 2°53.445 28.4 12.7 24 14.5
2004-07-13 06:55:47 51°19.585 2°53.456 29.4 12.6 24 14.4
2004-07-13 06:55:50 51°19.595 2°53.463 29.8 12.8 25 14.4
2004-07-13 06:55:58 51°19.62 2°53.482 29.9 12.7 24 14.4
2004-07-13 06:56:02 51°19.633 2°53.491 29.8 12.6 24 14.4
2004-07-13 06:56:08 51°19.653 2°53.505 30 12.7 24 14.4
2004-07-13 06:56:13 51°19.668 2°53.516 29.9 12.6 24 14.7
2004-07-13 06:56:16 51°19.678 2°53.524 29.7 12.8 24 14.6
2004-07-13 06:56:21 51°19.694 2°53.535 29.7 12.8 25 14.9
2004-07-13 06:56:28 51°19.717 2°53.551 29.4 12.6 25 14.7
2004-07-13 06:56:32 51°19.729 2°53.561 29.7 12.8 25 14.9
2004-07-13 06:56:37 51°19.746 2°53.573 29.9 12.8 25 15.1
2004-07-13 06:56:42 51°19.761 2°53.584 29.7 12.7 24 14.8
2004-07-13 06:56:48 51°19.781 2°53.598 29.4 12.6 24 14.8
2004-07-13 06:56:52 51°19.794 2°53.607 29.7 12.7 24 14.9
2004-07-13 06:56:57 51°19.81 2°53.618 29.4 12.6 23 15
2004-07-13 06:57:01 51°19.823 2°53.627 29 12.6 23 15
2004-07-13 06:57:08 51°19.845 2°53.643 29 12.6 23 15.2
2004-07-13 06:57:12 51°19.858 2°53.652 29.4 12.8 24 15
2004-07-13 06:57:17 51°19.874 2°53.664 29.5 12.7 23 15.3
2004-07-13 06:57:22 51°19.891 2°53.675 29.4 12.8 24 15.3
2004-07-13 06:57:27 51°19.907 2°53.687 29.3 12.9 25 15.3
2004-07-13 06:57:32 51°19.923 2°53.698 29.5 12.8 24 15.4
2004-07-13 06:57:38 51°19.942 2°53.712 29.3 12.7 24 15.5
2004-07-13 06:57:42 51°19.956 2°53.722 29.7 12.8 24 15.4
2004-07-13 06:57:48 51°19.975 2°53.736 29.7 12.9 24 15.9
2004-07-13 06:57:53 51°19.991 2°53.747 29.4 12.7 24 15.9
2004-07-13 06:57:57 51°20.004 2°53.756 29.4 12.6 24 15.7
2004-07-13 06:58:02 51°20.02 2°53.768 29.7 12.7 25 16.1
2004-07-13 06:58:07 51°20.036 2°53.78 29.8 12.7 25 16
2004-07-13 06:58:13 51°20.055 2°53.794 29.7 12.8 25 16
2004-07-13 06:58:17 51°20.068 2°53.804 29.8 12.9 25 16.1
2004-07-13 06:58:22 51°20.085 2°53.816 30 13 24 16.1
2004-07-13 06:58:28 51°20.104 2°53.83 29.9 12.9 25 16.1
2004-07-13 06:58:33 51°20.121 2°53.841 29.6 12.9 24 15.9
2004-07-13 06:58:35 51°20.127 2°53.846 29.7 12.9 24 16.3
2004-07-13 06:58:42 51°20.15 2°53.862 29.6 12.8 24 16.1
2004-07-13 06:58:48 51°20.169 2°53.876 29 12.8 23 16.3
2004-07-13 06:58:52 51°20.182 2°53.885 28.9 12.7 24 16.3
2004-07-13 06:58:56 51°20.196 2°53.894 29.5 12.7 23 16.3
2004-07-13 06:59:00 51°20.208 2°53.904 29.7 12.9 25 16.3
2004-07-13 06:59:07 51°20.231 2°53.919 29.7 12.9 24 16.3
2004-07-13 06:59:13 51°20.251 2°53.933 29.2 12.8 23 16.5
2004-07-13 06:59:17 51°20.264 2°53.942 28.9 12.9 23 16.6
2004-07-13 06:59:22 51°20.28 2°53.953 28.9 12.9 24 16.5
2004-07-13 06:59:28 51°20.3 2°53.967 29.2 12.9 24 16.7
2004-07-13 06:59:33 51°20.316 2°53.979 29 12.9 24 16.7
2004-07-13 06:59:37 51°20.33 2°53.988 28.6 12.8 23 16.8
2004-07-13 06:59:42 51°20.346 2°54 29 12.8 25 16.9
2004-07-13 06:59:47 51°20.362 2°54.011 29.4 12.9 24 16.8
2004-07-13 06:59:52 51°20.378 2°54.023 29.7 12.5 24 16.9
2004-07-13 06:59:56 51°20.391 2°54.033 29.4 12.6 24 16.7
2004-07-13 07:00:02 51°20.41 2°54.046 29.5 12.6 25 16.6
2004-07-13 07:00:08 51°20.429 2°54.059 29.4 12.4 23 16.5
2004-07-13 07:00:13 51°20.445 2°54.071 28.9 12.5 25 16.9
2004-07-13 07:00:16 51°20.454 2°54.077 29.2 12.5 22 16.9
2004-07-13 07:00:22 51°20.473 2°54.091 28.9 12.3 26 17.2
2004-07-13 07:00:28 51°20.492 2°54.104 29.5 12.2 24 16.9
2004-07-13 07:00:32 51°20.504 2°54.113 29 12.5 23 17
2004-07-13 07:00:35 51°20.513 2°54.119 28.7 12.7 24 17.1
2004-07-13 07:00:42 51°20.536 2°54.135 28.6 12.6 23 17.1
2004-07-13 07:00:48 51°20.554 2°54.149 29.3 12.4 25 16.9
2004-07-13 07:00:53 51°20.57 2°54.16 29 12.5 25 16.9
2004-07-13 07:00:57 51°20.583 2°54.169 29.7 12.6 24 17.3
2004-07-13 07:01:02 51°20.599 2°54.181 29.4 12.8 24 17.3
2004-07-13 07:01:08 51°20.619 2°54.195 28.6 12.8 24 17.3
2004-07-13 07:01:13 51°20.635 2°54.206 29 12.9 23 17.4
2004-07-13 07:01:17 51°20.648 2°54.215 28.8 12.8 23 17.3
2004-07-13 07:01:22 51°20.664 2°54.228 29.1 12.9 25 17.4
2004-07-13 07:01:28 51°20.684 2°54.242 29.6 13 24 17.3
2004-07-13 07:01:32 51°20.697 2°54.252 29.9 13 23 17.4
2004-07-13 07:01:37 51°20.713 2°54.263 29 12.9 24 17.2
2004-07-13 07:01:42 51°20.73 2°54.275 29 12.7 25 17.6
2004-07-13 07:01:48 51°20.749 2°54.289 29 12.5 23 17.6
2004-07-13 07:01:53 51°20.765 2°54.3 29.2 12.5 24 17.1
2004-07-13 07:01:57 51°20.778 2°54.308 28.7 12.5 23 17.1
2004-07-13 07:02:02 51°20.793 2°54.32 28.6 12.5 25 17.2
2004-07-13 07:02:06 51°20.806 2°54.329 29.2 12.7 23 17.5
2004-07-13 07:02:13 51°20.828 2°54.346 28.9 12.6 26 17.6
2004-07-13 07:02:17 51°20.841 2°54.354 29.3 12.7 23 17.3
2004-07-13 07:02:22 51°20.857 2°54.366 29 12.7 25 17.7
2004-07-13 07:02:28 51°20.877 2°54.38 29.9 12.8 24 17.7
2004-07-13 07:02:33 51°20.893 2°54.393 29.3 12.9 25 17.9
2004-07-13 07:02:36 51°20.903 2°54.399 29.2 12.9 24 17.7
2004-07-13 07:02:42 51°20.922 2°54.413 29.1 12.9 24 17.8
2004-07-13 07:02:48 51°20.941 2°54.427 29.1 12.8 23 17.6
2004-07-13 07:02:52 51°20.955 2°54.436 29.3 12.8 23 17.5
2004-07-13 07:02:55 51°20.965 2°54.443 29.2 12.6 25 17.3
2004-07-13 07:03:02 51°20.987 2°54.46 29.3 12.6 25 17.6
2004-07-13 07:03:05 51°20.997 2°54.467 29.6 12.6 25 17.8
2004-07-13 07:03:13 51°21.022 2°54.486 29.7 12.7 25 17.8
2004-07-13 07:03:17 51°21.035 2°54.496 29.7 12.7 25 17.7
2004-07-13 07:03:22 51°21.051 2°54.508 29.7 12.6 25 17.8
2004-07-13 07:03:28 51°21.07 2°54.521 29.2 12.8 24 17.9
2004-07-13 07:03:33 51°21.086 2°54.533 29 12.7 24 17.7
2004-07-13 07:03:36 51°21.096 2°54.54 29 12.7 24 17.6
2004-07-13 07:03:42 51°21.115 2°54.554 28.5 12.4 25 18
2004-07-13 07:03:48 51°21.134 2°54.567 29 12.7 24 17.8
2004-07-13 07:03:53 51°21.15 2°54.579 28.7 12.7 25 18.1
2004-07-13 07:03:57 51°21.163 2°54.588 29.1 12.5 25 17.9
2004-07-13 07:04:02 51°21.179 2°54.6 29 12.6 24 17.7
2004-07-13 07:04:08 51°21.198 2°54.614 28.7 12.6 24 17.7
2004-07-13 07:04:12 51°21.211 2°54.623 29.1 12.8 23 17.9
2004-07-13 07:04:18 51°21.23 2°54.637 28.9 12.9 26 18.1
2004-07-13 07:04:23 51°21.247 2°54.649 29.4 12.9 24 18
2004-07-13 07:04:28 51°21.263 2°54.662 29 12.8 24 18.1
2004-07-13 07:04:32 51°21.276 2°54.671 29.5 13.1 24 18.1
2004-07-13 07:04:36 51°21.289 2°54.68 29.4 13.1 25 18.3
2004-07-13 07:04:42 51°21.308 2°54.695 29.1 12.9 26 18.2
2004-07-13 07:04:48 51°21.327 2°54.709 29.2 12.6 24 18.1
2004-07-13 07:04:53 51°21.343 2°54.72 29.2 12.8 25 18
2004-07-13 07:04:57 51°21.356 2°54.73 29.1 12.9 25 18
2004-07-13 07:05:02 51°21.373 2°54.742 29.4 12.9 25 18.1
2004-07-13 07:05:08 51°21.392 2°54.757 29.3 13 26 18
2004-07-13 07:05:13 51°21.408 2°54.77 30.3 12.9 27 18.1
2004-07-13 07:05:17 51°21.421 2°54.781 31 12.9 28 18.2
2004-07-13 07:05:22 51°21.437 2°54.794 31.5 13 28 18.3
2004-07-13 07:05:27 51°21.453 2°54.806 31.5 13 26 18
2004-07-13 07:05:33 51°21.472 2°54.822 31.4 13.1 26 18.3
2004-07-13 07:05:37 51°21.485 2°54.832 31.2 13 27 18.6
2004-07-13 07:05:43 51°21.503 2°54.848 31.3 12.8 28 18.2
2004-07-13 07:05:48 51°21.519 2°54.86 31.7 12.9 27 18.1
2004-07-13 07:05:53 51°21.535 2°54.873 31.3 12.8 27 18
2004-07-13 07:05:58 51°21.551 2°54.886 31.7 12.9 27 18.2
2004-07-13 07:06:03 51°21.567 2°54.899 31.5 12.9 28 18.1
2004-07-13 07:06:08 51°21.583 2°54.912 31.2 12.9 27 18.1
2004-07-13 07:06:11 51°21.592 2°54.921 31.5 13.1 28 18.1
2004-07-13 07:06:16 51°21.609 2°54.934 31.8 13.1 27 18.2
2004-07-13 07:06:21 51°21.625 2°54.948 31.4 13 28 18.6
2004-07-13 07:06:28 51°21.648 2°54.967 31.1 12.9 27 18.4
2004-07-13 07:06:33 51°21.664 2°54.98 31.5 13 27 18.2
2004-07-13 07:06:37 51°21.676 2°54.99 31.2 13 27 18.2
2004-07-13 07:06:42 51°21.693 2°55.003 30.8 13 27 18.4
2004-07-13 07:06:48 51°21.712 2°55.018 30.9 13 27 18.2
2004-07-13 07:06:53 51°21.728 2°55.031 31.1 13 27 18.4
2004-07-13 07:06:56 51°21.738 2°55.039 31.1 12.8 27 18.3
2004-07-13 07:07:02 51°21.756 2°55.055 31.7 12.8 28 18.2
2004-07-13 07:07:08 51°21.775 2°55.071 31.9 13 28 18.3
2004-07-13 07:07:13 51°21.792 2°55.083 31.7 13 26 18.1
2004-07-13 07:07:15 51°21.798 2°55.089 30.8 13 26 18.3
2004-07-13 07:07:26 51°21.834 2°55.117 30 13.1 28 18.7
2004-07-13 07:07:32 51°21.854 2°55.132 30.2 13.2 26 18.5
2004-07-13 07:07:37 51°21.87 2°55.144 29.4 12.9 26 18.2
2004-07-13 07:07:41 51°21.883 2°55.154 29.7 13 26 18.3
2004-07-13 07:07:45 51°21.896 2°55.164 29.7 13 25 18.3
2004-07-13 07:07:52 51°21.919 2°55.181 29.2 13 24 18.5
2004-07-13 07:07:57 51°21.936 2°55.193 28.9 13 25 18.5
2004-07-13 07:08:02 51°21.952 2°55.205 29 13.1 25 18.6
2004-07-13 07:08:06 51°21.965 2°55.214 28.9 13 25 18.4
2004-07-13 07:08:10 51°21.978 2°55.224 29 13.1 25 18.6
2004-07-13 07:08:16 51°21.998 2°55.239 29.2 13.1 25 18.8
2004-07-13 07:08:21 51°22.015 2°55.251 28.9 13.2 24 18.7
2004-07-13 07:08:25 51°22.027 2°55.261 29.5 13 27 18.5
2004-07-13 07:08:32 51°22.05 2°55.278 29.4 12.8 25 18.4
2004-07-13 07:08:35 51°22.059 2°55.285 29.7 13.1 24 18.7
2004-07-13 07:08:42 51°22.082 2°55.302 29 12.9 25 19
2004-07-13 07:08:46 51°22.095 2°55.311 28.8 12.7 24 18.8
2004-07-13 07:08:52 51°22.115 2°55.325 28.9 12.8 25 18.9
2004-07-13 07:08:57 51°22.131 2°55.337 28.7 13 25 19.2
2004-07-13 07:09:02 51°22.147 2°55.349 29.1 12.9 25 19.3
2004-07-13 07:09:06 51°22.16 2°55.358 29.2 13 24 19.2
2004-07-13 07:09:12 51°22.18 2°55.373 28.9 12.9 24 19.4
2004-07-13 07:09:17 51°22.196 2°55.385 29.1 12.8 26 19.1
2004-07-13 07:09:22 51°22.212 2°55.397 29.6 12.9 25 19.3
2004-07-13 07:09:27 51°22.228 2°55.409 29.8 13 25 19.6
2004-07-13 07:09:32 51°22.244 2°55.421 29.5 13 26 19.7
2004-07-13 07:09:36 51°22.258 2°55.431 29.5 12.9 26 19.9
2004-07-13 07:09:41 51°22.274 2°55.444 29.3 12.9 26 19.7
2004-07-13 07:09:45 51°22.287 2°55.453 29.1 13 25 19.7
2004-07-13 07:09:52 51°22.31 2°55.47 29.5 13.1 25 20.1
2004-07-13 07:09:57 51°22.326 2°55.483 29.4 13.1 25 20
2004-07-13 07:10:01 51°22.339 2°55.492 29.3 13 24 19.9
2004-07-13 07:10:06 51°22.356 2°55.505 29.6 13 25 19.9
2004-07-13 07:10:12 51°22.375 2°55.519 29.5 13.1 25 19.5
2004-07-13 07:10:17 51°22.392 2°55.532 29.7 13.1 25 19.4
2004-07-13 07:10:22 51°22.408 2°55.544 29.4 13 24 19.4
2004-07-13 07:10:26 51°22.421 2°55.554 29.1 12.9 26 19.4
2004-07-13 07:10:32 51°22.441 2°55.568 29 13 24 19.1
2004-07-13 07:10:37 51°22.457 2°55.581 28.5 13 26 19.3
2004-07-13 07:10:42 51°22.473 2°55.592 29 13 25 19.1
2004-07-13 07:10:46 51°22.486 2°55.602 29.2 13 26 19
2004-07-13 07:10:52 51°22.506 2°55.617 29 13.1 25 19.2
2004-07-13 07:10:57 51°22.522 2°55.63 28.8 13 26 19.1
2004-07-13 07:11:02 51°22.539 2°55.642 29.5 13.1 26 19
2004-07-13 07:11:06 51°22.552 2°55.652 28.9 12.9 25 19.1
2004-07-13 07:11:11 51°22.568 2°55.664 29.1 13.2 25 19.2
2004-07-13 07:11:16 51°22.585 2°55.676 29.6 13 24 19.4
2004-07-13 07:11:21 51°22.601 2°55.689 29.1 13 25 19.2
2004-07-13 07:11:25 51°22.614 2°55.698 29 13 25 19.1
2004-07-13 07:11:32 51°22.636 2°55.715 29 13 25 19.2
2004-07-13 07:11:37 51°22.653 2°55.727 28.8 12.9 25 19.2
2004-07-13 07:11:41 51°22.666 2°55.737 28.9 12.9 26 19
2004-07-13 07:11:46 51°22.682 2°55.748 29.3 12.8 25 19
2004-07-13 07:11:52 51°22.702 2°55.764 29.3 12.8 25 19.4
2004-07-13 07:11:56 51°22.715 2°55.773 29 12.8 25 19.2
2004-07-13 07:12:01 51°22.731 2°55.785 29.2 12.9 26 19.1
2004-07-13 07:12:05 51°22.744 2°55.795 29.1 13.1 24 19
2004-07-13 07:12:12 51°22.767 2°55.811 29 12.8 25 19
2004-07-13 07:12:15 51°22.777 2°55.819 29 12.9 25 19.1
2004-07-13 07:12:22 51°22.8 2°55.836 29 13 25 19.1
2004-07-13 07:12:26 51°22.813 2°55.846 29 13.1 26 19.4
2004-07-13 07:12:32 51°22.832 2°55.861 28.9 13 25 19.2
2004-07-13 07:12:35 51°22.842 2°55.869 29.2 13 25 19.3
2004-07-13 07:12:42 51°22.865 2°55.886 29.2 13.2 26 19.4
2004-07-13 07:12:46 51°22.878 2°55.895 29.1 13.2 25 19.7
2004-07-13 07:12:52 51°22.897 2°55.91 28.9 12.9 26 19.5
2004-07-13 07:12:56 51°22.91 2°55.92 29.2 12.9 25 19.4
2004-07-13 07:13:01 51°22.926 2°55.932 29 12.9 26 19.5
2004-07-13 07:13:06 51°22.942 2°55.944 29.4 13 25 19.5
2004-07-13 07:13:12 51°22.961 2°55.959 29.4 12.9 26 19.3
2004-07-13 07:13:17 51°22.978 2°55.972 30.1 13.1 26 19.6
2004-07-13 07:13:22 51°22.994 2°55.985 30.2 13.1 27 19.7
2004-07-13 07:13:26 51°23.007 2°55.995 29.5 13.1 26 19.8
2004-07-13 07:13:32 51°23.026 2°56.01 29.8 13 27 19.6
2004-07-13 07:13:37 51°23.043 2°56.023 30.2 13.1 26 19.7
2004-07-13 07:13:42 51°23.059 2°56.035 30.1 13.2 26 19.8
2004-07-13 07:13:46 51°23.072 2°56.045 29.6 13.1 25 19.7
2004-07-13 07:13:52 51°23.092 2°56.06 29 13.1 25 20
2004-07-13 07:13:56 51°23.105 2°56.07 28.8 13.1 26 19.9
2004-07-13 07:14:00 51°23.118 2°56.081 29.4 13.2 26 20
2004-07-13 07:14:04 51°23.131 2°56.09 29.1 13.3 25 20
2004-07-13 07:14:12 51°23.158 2°56.11 29 13.2 26 20.2
2004-07-13 07:14:17 51°23.174 2°56.123 29.4 12.8 26 19.9
2004-07-13 07:14:22 51°23.19 2°56.135 29.3 13 25 19.9
2004-07-13 07:14:26 51°23.203 2°56.145 29.2 13 25 20
2004-07-13 07:14:32 51°23.223 2°56.16 29 13 26 19.8
2004-07-13 07:14:37 51°23.239 2°56.172 29 13 25 19.9
2004-07-13 07:14:40 51°23.249 2°56.18 28.8 13 26 20.1
2004-07-13 07:14:45 51°23.265 2°56.192 29.2 13 25 20.2
2004-07-13 07:14:52 51°23.288 2°56.21 29.7 13 26 20
2004-07-13 07:14:57 51°23.305 2°56.223 29.1 13 26 20.3
2004-07-13 07:15:02 51°23.321 2°56.236 29.7 13 27 20.1
2004-07-13 07:15:06 51°23.334 2°56.246 29.5 12.9 27 20.1
2004-07-13 07:15:12 51°23.353 2°56.261 29.2 12.8 26 20.2
2004-07-13 07:15:17 51°23.369 2°56.273 29.7 12.8 25 20.3
2004-07-13 07:15:22 51°23.385 2°56.285 29 12.9 24 20.3
2004-07-13 07:15:24 51°23.392 2°56.29 28.4 12.9 24 20.2
2004-07-13 07:15:32 51°23.418 2°56.308 27.5 13 23 20.5
2004-07-13 07:15:37 51°23.435 2°56.32 27.4 12.9 23 20.2
2004-07-13 07:15:42 51°23.451 2°56.331 27 12.8 23 20.3
2004-07-13 07:15:46 51°23.465 2°56.34 27.3 13 23 20.4
2004-07-13 07:15:52 51°23.485 2°56.354 27.4 13.1 23 20.5
2004-07-13 07:15:55 51°23.495 2°56.361 26.6 13 24 20
2004-07-13 07:16:02 51°23.518 2°56.377 27.4 13.2 25 19.3
2004-07-13 07:16:06 51°23.531 2°56.386 27.3 13 22 18.4
2004-07-13 07:16:12 51°23.551 2°56.401 27.4 12.9 25 20.7
2004-07-13 07:16:17 51°23.568 2°56.412 27.9 13.3 23 19.5
2004-07-13 07:16:22 51°23.584 2°56.424 27.2 13.1 24 18.3
2004-07-13 07:16:26 51°23.597 2°56.433 27.5 13 24 20.1
2004-07-13 07:16:32 51°23.617 2°56.446 27.5 13.1 23 20.2
2004-07-13 07:16:36 51°23.63 2°56.456 26.6 12.9 24 19.6
2004-07-13 07:16:42 51°23.65 2°56.469 27 12.9 23 18.6
2004-07-13 07:16:46 51°23.663 2°56.478 26.9 13 23 17.3
2004-07-13 07:16:52 51°23.683 2°56.492 26.9 12.9 23 18.9
2004-07-13 07:16:56 51°23.696 2°56.501 27.1 13 24 18.5
2004-07-13 07:17:02 51°23.717 2°56.514 27.3 13.1 23 15.7
2004-07-13 07:17:06 51°23.73 2°56.524 27.2 13.1 23 17.9
2004-07-13 07:17:12 51°23.75 2°56.538 26.8 13 23 17
2004-07-13 07:17:16 51°23.763 2°56.547 27.2 13 24 16.4
2004-07-13 07:17:21 51°23.78 2°56.559 27.5 12.9 24 18.3
2004-07-13 07:17:25 51°23.793 2°56.568 27.6 12.9 23 17.8
2004-07-13 07:17:31 51°23.813 2°56.583 27.5 13 24 16.1
2004-07-13 07:17:36 51°23.829 2°56.594 27.5 13 23 17
2004-07-13 07:17:40 51°23.842 2°56.603 26.9 13 25 17.8
2004-07-13 07:17:45 51°23.859 2°56.614 27 13 23 16.8
2004-07-13 07:17:52 51°23.881 2°56.631 27.2 13 23 15.6
2004-07-13 07:17:57 51°23.897 2°56.642 27.7 12.7 23 17
2004-07-13 07:18:02 51°23.913 2°56.654 27.2 12.6 24 16.7
2004-07-13 07:18:05 51°23.923 2°56.66 27.4 12.7 23 14.7
2004-07-13 07:18:12 51°23.946 2°56.676 27.4 12.8 24 17.6
2004-07-13 07:18:17 51°23.962 2°56.688 27.2 12.5 24 16.8
2004-07-13 07:18:21 51°23.975 2°56.697 27.2 12.4 24 15.3
2004-07-13 07:18:26 51°23.991 2°56.708 27.3 12.7 23 16.1
2004-07-13 07:18:32 51°24.011 2°56.721 26.9 12.8 23 17.2
2004-07-13 07:18:36 51°24.024 2°56.731 26.5 12.8 24 16.4
2004-07-13 07:18:42 51°24.043 2°56.745 27.4 12.8 24 14.7
2004-07-13 07:18:46 51°24.056 2°56.754 27.5 12.8 24 14.2
2004-07-13 07:18:52 51°24.075 2°56.767 27.7 12.9 24 16.4
2004-07-13 07:18:56 51°24.088 2°56.777 27.3 12.8 24 16.7
2004-07-13 07:18:59 51°24.098 2°56.783 27.3 12.8 24 16.9
2004-07-13 07:19:06 51°24.121 2°56.799 27.1 12.9 23 16
2004-07-13 07:19:12 51°24.14 2°56.813 26.9 12.7 24 17.1
2004-07-13 07:19:17 51°24.156 2°56.824 26.9 12.5 24 18.6
2004-07-13 07:19:21 51°24.17 2°56.834 26.9 12.6 24 18.2
2004-07-13 07:19:25 51°24.183 2°56.843 27.1 12.8 23 17.9
2004-07-13 07:19:32 51°24.205 2°56.858 26.8 12.7 24 17.6
2004-07-13 07:19:37 51°24.221 2°56.87 27 12.8 25 17.4
2004-07-13 07:19:41 51°24.234 2°56.878 27.4 12.7 23 16.8
2004-07-13 07:19:46 51°24.25 2°56.89 27.1 12.7 24 16.3
2004-07-13 07:19:52 51°24.27 2°56.904 27.3 12.8 24 18.5
2004-07-13 07:19:57 51°24.285 2°56.916 27.3 12.6 25 18.3
2004-07-13 07:20:02 51°24.302 2°56.927 27.4 12.6 24 17.7
2004-07-13 07:20:06 51°24.315 2°56.936 27.2 12.7 24 16.3
2004-07-13 07:20:11 51°24.33 2°56.948 27.2 12.5 24 16.4
2004-07-13 07:20:16 51°24.346 2°56.96 27.2 12.5 25 18.3
2004-07-13 07:20:22 51°24.365 2°56.973 27.1 12.4 25 18.4
2004-07-13 07:20:26 51°24.378 2°56.982 27.6 12.6 25 18.6
2004-07-13 07:20:32 51°24.397 2°56.996 26.6 12.7 24 19.2
2004-07-13 07:20:36 51°24.41 2°57.006 27 12.6 25 19.1
2004-07-13 07:20:41 51°24.426 2°57.016 27.3 12.6 23 17.6
2004-07-13 07:20:45 51°24.439 2°57.026 27.5 12.7 25 17.2
2004-07-13 07:20:52 51°24.462 2°57.042 27.5 12.7 24 18.5
2004-07-13 07:20:57 51°24.478 2°57.054 27.4 12.9 24 19.2
2004-07-13 07:21:02 51°24.494 2°57.066 27.2 12.9 25 19.6
2004-07-13 07:21:05 51°24.503 2°57.072 27.5 12.4 24 19.5
2004-07-13 07:21:16 51°24.538 2°57.097 26.8 12.5 24 19.4
2004-07-13 07:21:21 51°24.554 2°57.108 26.8 12.5 24 19.3
2004-07-13 07:21:25 51°24.567 2°57.117 27.1 12.4 25 18.9
2004-07-13 07:21:30 51°24.583 2°57.129 27.7 12.4 26 19.3
2004-07-13 07:21:36 51°24.602 2°57.143 27.9 12.4 23 19.2
2004-07-13 07:21:40 51°24.615 2°57.153 27.8 12.6 23 19.4
2004-07-13 07:21:45 51°24.631 2°57.163 26.9 12.7 22 20.2
2004-07-13 07:21:50 51°24.647 2°57.176 26.7 12.6 25 20.7
2004-07-13 07:21:55 51°24.663 2°57.186 26.8 12.6 23 20.6
2004-07-13 07:22:01 51°24.682 2°57.2 26.6 12.6 24 20.9
2004-07-13 07:22:05 51°24.695 2°57.209 26.8 12.7 23 20.8
2004-07-13 07:22:10 51°24.711 2°57.22 26.8 12.8 24 21.1
2004-07-13 07:22:15 51°24.728 2°57.231 26.3 13 23 20.9
2004-07-13 07:22:20 51°24.744 2°57.243 26.3 12.9 23 21.4
2004-07-13 07:22:24 51°24.757 2°57.252 26.7 12.9 24 21.8
2004-07-13 07:22:30 51°24.776 2°57.265 26.1 12.5 24 21.7
2004-07-13 07:22:36 51°24.795 2°57.278 26.4 12.6 24 21.7
2004-07-13 07:22:41 51°24.812 2°57.29 26.4 12.8 23 21.8
2004-07-13 07:22:45 51°24.825 2°57.298 26.1 12.9 22 21.8
2004-07-13 07:22:49 51°24.838 2°57.307 25.8 12.6 23 21.8
2004-07-13 07:22:56 51°24.861 2°57.322 25.6 12.8 22 22.1
2004-07-13 07:23:01 51°24.878 2°57.334 26.1 13.1 24 22.7
2004-07-13 07:23:05 51°24.89 2°57.343 26 13 23 22.8
2004-07-13 07:23:10 51°24.907 2°57.354 26.1 13 24 22.8
2004-07-13 07:23:16 51°24.927 2°57.367 26.1 12.9 22 22.8
2004-07-13 07:23:20 51°24.94 2°57.376 25.9 13 23 22.7
2004-07-13 07:23:25 51°24.957 2°57.387 26 13 23 23
2004-07-13 07:23:30 51°24.973 2°57.399 26.1 13 24 23.2
2004-07-13 07:23:36 51°24.993 2°57.412 25.9 13 22 23.3
2004-07-13 07:23:40 51°25.007 2°57.421 25.9 13 22 23.3
2004-07-13 07:23:45 51°25.023 2°57.432 25.6 12.9 23 23.5
2004-07-13 07:23:50 51°25.04 2°57.444 25.7 13.1 24 23.9
2004-07-13 07:23:56 51°25.06 2°57.458 26.2 12.8 23 23.9
2004-07-13 07:23:59 51°25.069 2°57.464 26.4 13.1 24 23.8
2004-07-13 07:24:06 51°25.092 2°57.481 26.8 13 25 24.1
2004-07-13 07:24:09 51°25.102 2°57.488 26.6 12.9 24 24
2004-07-13 07:24:16 51°25.125 2°57.504 26.6 13.1 24 24.1
2004-07-13 07:24:21 51°25.142 2°57.515 25.9 12.8 23 24.3
2004-07-13 07:24:25 51°25.155 2°57.524 25.9 12.5 23 24.1
2004-07-13 07:24:30 51°25.171 2°57.535 25.5 12.6 25 24.5
2004-07-13 07:24:36 51°25.19 2°57.549 26.6 12.4 23 24.5
2004-07-13 07:24:41 51°25.206 2°57.561 26.8 12.6 24 24.8
2004-07-13 07:24:45 51°25.219 2°57.569 26.3 12.7 23 24.9
2004-07-13 07:24:50 51°25.235 2°57.581 26.2 12.5 24 24.9
2004-07-13 07:24:56 51°25.254 2°57.594 26 12.6 23 24.9
2004-07-13 07:25:00 51°25.268 2°57.603 26.4 12.7 23 25.3
2004-07-13 07:25:05 51°25.284 2°57.614 26.1 12.8 23 25.3
2004-07-13 07:25:10 51°25.3 2°57.625 25.3 12.8 23 25.5
2004-07-13 07:25:16 51°25.32 2°57.639 25.3 13 23 25.5
2004-07-13 07:25:20 51°25.333 2°57.648 26.2 12.8 23 25.3
2004-07-13 07:25:25 51°25.35 2°57.659 26.2 13 23 25.4
2004-07-13 07:25:30 51°25.366 2°57.67 25.4 13 23 25.4
2004-07-13 07:25:33 51°25.376 2°57.677 26 13 23 25.4
2004-07-13 07:25:41 51°25.402 2°57.696 26.1 12.8 25 25.5
2004-07-13 07:25:46 51°25.419 2°57.707 26.9 12.7 24 25.6
2004-07-13 07:25:50 51°25.432 2°57.717 27 12.9 24 25.6
2004-07-13 07:25:56 51°25.452 2°57.73 26.4 13 24 25.6
2004-07-13 07:26:00 51°25.465 2°57.739 26 12.9 24 25.3
2004-07-13 07:26:04 51°25.478 2°57.749 26.5 12.9 24 25.2
2004-07-13 07:26:09 51°25.495 2°57.76 26.6 13.2 22 25.1
2004-07-13 07:26:15 51°25.514 2°57.774 26.5 12.9 24 24.8
2004-07-13 07:26:21 51°25.534 2°57.787 26.3 12.9 23 25.2
2004-07-13 07:26:24 51°25.543 2°57.794 26.2 12.8 24 25.2
2004-07-13 07:26:28 51°25.557 2°57.803 26.6 13 23 25.4
2004-07-13 07:26:36 51°25.583 2°57.822 26.8 13.2 24 25.6
2004-07-13 07:26:41 51°25.6 2°57.833 26.5 13.1 22 25.9
2004-07-13 07:26:45 51°25.614 2°57.842 26.1 13.1 23 26.2
2004-07-13 07:26:50 51°25.63 2°57.853 25.8 13.2 23 26.2
2004-07-13 07:26:56 51°25.65 2°57.868 26.1 13.2 24 26.4
2004-07-13 07:27:00 51°25.664 2°57.877 26.5 12.8 24 25.8
2004-07-13 07:27:06 51°25.683 2°57.891 26.7 12.7 23 25.7
2004-07-13 07:27:10 51°25.696 2°57.9 26.8 12.9 24 25.7
2004-07-13 07:27:15 51°25.713 2°57.911 26.8 13 23 25.7
2004-07-13 07:27:20 51°25.729 2°57.923 26.2 13.2 25 25.7
2004-07-13 07:27:26 51°25.749 2°57.937 26.5 13 23 25.6
2004-07-13 07:27:30 51°25.762 2°57.947 27.4 13.1 24 25.6
2004-07-13 07:27:35 51°25.779 2°57.959 27.1 13.1 24 25.7
2004-07-13 07:27:40 51°25.796 2°57.97 26.7 13.1 24 25.6
2004-07-13 07:27:45 51°25.812 2°57.982 26.8 13.2 24 25.7
2004-07-13 07:27:49 51°25.826 2°57.992 26.3 13.2 24 25.6
2004-07-13 07:27:55 51°25.846 2°58.005 26.7 13.1 24 25.5
2004-07-13 07:28:01 51°25.866 2°58.019 26.4 12.9 22 25.3
2004-07-13 07:28:06 51°25.882 2°58.031 25.8 13.1 24 25.2
2004-07-13 07:28:10 51°25.896 2°58.04 26.2 13.2 23 25
2004-07-13 07:28:13 51°25.906 2°58.047 25.5 13 24 24.8
2004-07-13 07:28:21 51°25.932 2°58.065 26.2 13.2 24 24.8
2004-07-13 07:28:25 51°25.946 2°58.075 26.5 13.2 25 24.9
2004-07-13 07:28:30 51°25.962 2°58.087 27.1 13.2 24 24.8
2004-07-13 07:28:33 51°25.973 2°58.094 27.1 13 25 24.5
2004-07-13 07:28:41 51°25.999 2°58.113 26.6 13 23 24.5
2004-07-13 07:28:45 51°26.012 2°58.122 25.7 12.9 23 24.4
2004-07-13 07:28:52 51°26.036 2°58.138 25.8 12.9 23 24.4
2004-07-13 07:28:57 51°26.052 2°58.149 25.9 13.1 24 24.1
2004-07-13 07:29:02 51°26.069 2°58.161 26.7 13.2 24 24.2
2004-07-13 07:29:06 51°26.082 2°58.17 26.4 13 23 23.8
2004-07-13 07:29:12 51°26.102 2°58.184 26.9 12.9 25 23.8
2004-07-13 07:29:16 51°26.115 2°58.193 26.7 12.8 23 22.1
2004-07-13 07:29:21 51°26.131 2°58.205 26.2 12.7 24 23.1
2004-07-13 07:29:25 51°26.144 2°58.213 26.2 12.8 23 23.4
2004-07-13 07:29:32 51°26.167 2°58.229 26.4 12.7 23 23.1
2004-07-13 07:29:35 51°26.177 2°58.237 26.3 12.8 24 23.1
2004-07-13 07:29:42 51°26.199 2°58.252 26.8 13.1 24 23.5
2004-07-13 07:29:46 51°26.212 2°58.261 26 12.4 23 23.1
2004-07-13 07:29:52 51°26.231 2°58.275 26.4 12.4 24 22.7
2004-07-13 07:29:55 51°26.241 2°58.282 26.6 12.6 24 21.9
2004-07-13 07:30:02 51°26.263 2°58.298 26.8 12.6 25 20.5
2004-07-13 07:30:05 51°26.273 2°58.305 26.6 12.7 23 21.5
2004-07-13 07:30:12 51°26.295 2°58.321 26.7 12.4 25 21.2
2004-07-13 07:30:16 51°26.307 2°58.33 26.8 12.6 24 21.7
2004-07-13 07:30:21 51°26.323 2°58.341 26.3 12.5 24 22.2
2004-07-13 07:30:26 51°26.34 2°58.352 26.3 12.5 23 22
2004-07-13 07:30:30 51°26.352 2°58.361 25.9 12.8 24 20
2004-07-13 07:30:36 51°26.372 2°58.375 25.4 12.5 26 19.5
2004-07-13 07:30:42 51°26.391 2°58.388 26.9 12.4 23 20.7
2004-07-13 07:30:45 51°26.4 2°58.395 26.1 12.7 25 21
2004-07-13 07:30:52 51°26.423 2°58.411 26.6 12.2 25 21.3
2004-07-13 07:30:57 51°26.438 2°58.422 26.4 12.2 24 21.5
2004-07-13 07:31:01 51°26.45 2°58.431 26.4 12.4 24 20.9
2004-07-13 07:31:06 51°26.466 2°58.442 26.2 12.5 23 20.9
2004-07-13 07:31:12 51°26.485 2°58.456 26.3 12.6 24 21
2004-07-13 07:31:16 51°26.498 2°58.465 26.2 12.7 23 21.1
2004-07-13 07:31:22 51°26.518 2°58.479 26 12.7 23 21.1
2004-07-13 07:31:26 51°26.531 2°58.488 26.1 13 24 21.6
2004-07-13 07:31:32 51°26.551 2°58.502 26 12.8 23 21.3
2004-07-13 07:31:36 51°26.564 2°58.511 26.1 12.8 25 19.9
2004-07-13 07:31:41 51°26.58 2°58.523 26.8 12.7 24 20.4
2004-07-13 07:31:45 51°26.593 2°58.532 26.8 12.8 24 20.6
2004-07-13 07:31:52 51°26.616 2°58.548 25.9 12.9 23 20.5
2004-07-13 07:31:55 51°26.625 2°58.555 26.1 12.5 24 20.5
2004-07-13 07:32:02 51°26.648 2°58.571 26.3 12.6 24 20.4
2004-07-13 07:32:06 51°26.661 2°58.581 26.3 12.9 24 21.1
2004-07-13 07:32:12 51°26.68 2°58.594 25.5 12.8 24 20.9
2004-07-13 07:32:17 51°26.696 2°58.606 26.1 12.9 24 18.7
2004-07-13 07:32:22 51°26.712 2°58.617 26.1 12.6 23 19.4
2004-07-13 07:32:26 51°26.725 2°58.626 26.1 12.7 24 20
2004-07-13 07:32:32 51°26.745 2°58.639 26 13 23 19.9
2004-07-13 07:32:36 51°26.758 2°58.649 25.4 12.8 25 20.2
2004-07-13 07:32:42 51°26.778 2°58.662 26.4 12.8 23 19.4
2004-07-13 07:32:47 51°26.794 2°58.674 25.9 13.1 23 18.5
2004-07-13 07:32:56 51°26.824 2°58.695 26.3 12.9 25 18.2
2004-07-13 07:33:02 51°26.843 2°58.709 27.1 13 23 19
2004-07-13 07:33:07 51°26.86 2°58.72 26.3 13.1 23 19.4
2004-07-13 07:33:12 51°26.876 2°58.732 26.3 12.7 24 18.1
2004-07-13 07:33:18 51°26.896 2°58.746 26.7 13 24 18.9
2004-07-13 07:33:23 51°26.912 2°58.757 26.6 12.6 23 19.1
2004-07-13 07:33:28 51°26.928 2°58.769 25.9 12.6 24 19.4
2004-07-13 07:33:33 51°26.944 2°58.781 26.6 12.8 24 19.4
2004-07-13 07:33:38 51°26.96 2°58.793 26.8 13 25 19.6
2004-07-13 07:33:42 51°26.973 2°58.803 26.8 12.9 25 19.9
2004-07-13 07:33:48 51°26.992 2°58.817 26.8 12.7 24 20.4
2004-07-13 07:33:53 51°27.009 2°58.828 26.8 13 24 20.6
2004-07-13 07:33:57 51°27.022 2°58.838 26.1 13.1 24 20.7
2004-07-13 07:34:02 51°27.038 2°58.849 26 13 24 20
2004-07-13 07:34:08 51°27.058 2°58.863 26 12.8 23 19.7
2004-07-13 07:34:13 51°27.074 2°58.874 25.6 12.7 23 19.6
2004-07-13 07:34:17 51°27.087 2°58.883 25.6 12.7 23 19.6
2004-07-13 07:34:22 51°27.104 2°58.895 25.9 12.8 23 15.9
2004-07-13 07:34:27 51°27.12 2°58.906 25.9 12.8 24 17.5
2004-07-13 07:34:32 51°27.136 2°58.917 26.1 12.6 23 18.1
2004-07-13 07:34:37 51°27.153 2°58.929 26.1 12.8 24 18.1
2004-07-13 07:34:42 51°27.169 2°58.94 26.1 13 24 17
2004-07-13 07:34:48 51°27.188 2°58.953 25.5 12.9 23 17.3
2004-07-13 07:34:52 51°27.2 2°58.962 25.7 12.6 25 18.2
2004-07-13 07:34:55 51°27.21 2°58.97 26.5 12.6 24 18.7
2004-07-13 07:35:02 51°27.232 2°58.986 26.7 12.7 25 16.5
2004-07-13 07:35:05 51°27.242 2°58.993 26.7 12.6 24 17.4
2004-07-13 07:35:13 51°27.267 2°59.01 26.5 12.6 23 18.1
2004-07-13 07:35:17 51°27.28 2°59.02 26.1 12.8 25 17.8
2004-07-13 07:35:22 51°27.297 2°59.031 26.7 12.7 22 17.7
2004-07-13 07:35:28 51°27.316 2°59.045 25.8 12.9 24 18.3
2004-07-13 07:35:33 51°27.332 2°59.056 26.1 12.6 24 18.5
2004-07-13 07:35:37 51°27.345 2°59.065 26 12.5 24 18.9
2004-07-13 07:35:42 51°27.361 2°59.076 26.5 12.5 24 19.6
2004-07-13 07:35:48 51°27.381 2°59.09 25.9 12.7 22 19.8
2004-07-13 07:35:52 51°27.393 2°59.098 25.4 12.6 23 20.2
2004-07-13 07:35:56 51°27.407 2°59.107 25.4 12.5 24 20.1
2004-07-13 07:36:02 51°27.425 2°59.121 26.8 12.7 25 20.4
2004-07-13 07:36:08 51°27.444 2°59.135 26.4 12.6 23 20.6
2004-07-13 07:36:13 51°27.461 2°59.146 26.8 12.7 23 20.8
2004-07-13 07:36:16 51°27.47 2°59.153 26.1 12.8 24 21